sensor_id;sensor_type;location;lat;lon;timestamp;P1;durP1;ratioP1;P2;durP2;ratioP2
73264;SDS011;61493;51.008;14.088;2023-09-12T00:00:44;16.80;;;10.63;;
73264;SDS011;61493;51.008;14.088;2023-09-12T00:03:10;15.23;;;10.60;;
73264;SDS011;61493;51.008;14.088;2023-09-12T00:05:36;15.60;;;10.02;;
73264;SDS011;61493;51.008;14.088;2023-09-12T00:08:01;14.52;;;10.18;;
73264;SDS011;61493;51.008;14.088;2023-09-12T00:10:28;14.65;;;10.80;;
73264;SDS011;61493;51.008;14.088;2023-09-12T00:12:54;14.20;;;10.45;;
73264;SDS011;61493;51.008;14.088;2023-09-12T00:15:19;13.15;;;10.40;;
73264;SDS011;61493;51.008;14.088;2023-09-12T00:17:45;14.18;;;9.95;;
73264;SDS011;61493;51.008;14.088;2023-09-12T00:20:10;15.73;;;10.40;;
73264;SDS011;61493;51.008;14.088;2023-09-12T00:22:36;13.48;;;10.20;;
73264;SDS011;61493;51.008;14.088;2023-09-12T00:25:01;12.82;;;9.70;;
73264;SDS011;61493;51.008;14.088;2023-09-12T00:27:27;12.93;;;9.85;;
73264;SDS011;61493;51.008;14.088;2023-09-12T00:29:52;11.70;;;8.97;;
73264;SDS011;61493;51.008;14.088;2023-09-12T00:32:17;11.80;;;9.20;;
73264;SDS011;61493;51.008;14.088;2023-09-12T00:34:42;14.60;;;10.27;;
73264;SDS011;61493;51.008;14.088;2023-09-12T00:37:07;12.57;;;9.50;;
73264;SDS011;61493;51.008;14.088;2023-09-12T00:39:33;13.30;;;9.33;;
73264;SDS011;61493;51.008;14.088;2023-09-12T00:41:58;12.10;;;9.57;;
73264;SDS011;61493;51.008;14.088;2023-09-12T00:44:23;12.80;;;9.40;;
73264;SDS011;61493;51.008;14.088;2023-09-12T00:46:48;13.70;;;9.57;;
73264;SDS011;61493;51.008;14.088;2023-09-12T00:49:14;13.77;;;9.43;;
73264;SDS011;61493;51.008;14.088;2023-09-12T00:51:40;15.30;;;10.23;;
73264;SDS011;61493;51.008;14.088;2023-09-12T00:54:05;12.85;;;9.88;;
73264;SDS011;61493;51.008;14.088;2023-09-12T00:56:31;12.98;;;9.82;;
73264;SDS011;61493;51.008;14.088;2023-09-12T00:58:57;12.43;;;9.52;;
73264;SDS011;61493;51.008;14.088;2023-09-12T01:01:22;12.93;;;10.52;;
73264;SDS011;61493;51.008;14.088;2023-09-12T01:03:51;12.65;;;9.40;;
73264;SDS011;61493;51.008;14.088;2023-09-12T01:06:17;11.68;;;10.25;;
73264;SDS011;61493;51.008;14.088;2023-09-12T01:08:44;12.88;;;9.52;;
73264;SDS011;61493;51.008;14.088;2023-09-12T01:11:09;14.60;;;10.63;;
73264;SDS011;61493;51.008;14.088;2023-09-12T01:13:35;13.50;;;9.20;;
73264;SDS011;61493;51.008;14.088;2023-09-12T01:16:00;13.48;;;10.55;;
73264;SDS011;61493;51.008;14.088;2023-09-12T01:18:25;19.75;;;10.77;;
73264;SDS011;61493;51.008;14.088;2023-09-12T01:21:16;12.02;;;9.65;;
73264;SDS011;61493;51.008;14.088;2023-09-12T01:23:42;12.40;;;9.65;;
73264;SDS011;61493;51.008;14.088;2023-09-12T01:26:17;14.40;;;9.50;;
73264;SDS011;61493;51.008;14.088;2023-09-12T01:28:43;15.68;;;10.05;;
73264;SDS011;61493;51.008;14.088;2023-09-12T01:31:09;12.05;;;9.68;;
73264;SDS011;61493;51.008;14.088;2023-09-12T01:33:35;12.40;;;9.65;;
73264;SDS011;61493;51.008;14.088;2023-09-12T01:36:00;13.80;;;9.07;;
73264;SDS011;61493;51.008;14.088;2023-09-12T01:38:25;12.45;;;9.10;;
73264;SDS011;61493;51.008;14.088;2023-09-12T01:40:51;13.45;;;9.77;;
73264;SDS011;61493;51.008;14.088;2023-09-12T01:43:17;13.55;;;9.43;;
73264;SDS011;61493;51.008;14.088;2023-09-12T01:45:44;14.57;;;9.45;;
73264;SDS011;61493;51.008;14.088;2023-09-12T01:48:10;14.70;;;9.65;;
73264;SDS011;61493;51.008;14.088;2023-09-12T01:50:36;14.77;;;9.32;;
73264;SDS011;61493;51.008;14.088;2023-09-12T01:53:01;12.43;;;9.07;;
73264;SDS011;61493;51.008;14.088;2023-09-12T01:55:27;10.93;;;8.73;;
73264;SDS011;61493;51.008;14.088;2023-09-12T01:57:53;14.80;;;9.25;;
73264;SDS011;61493;51.008;14.088;2023-09-12T02:00:18;10.93;;;9.02;;
73264;SDS011;61493;51.008;14.088;2023-09-12T02:02:47;12.88;;;9.77;;
73264;SDS011;61493;51.008;14.088;2023-09-12T02:05:21;10.75;;;8.27;;
73264;SDS011;61493;51.008;14.088;2023-09-12T02:07:47;12.13;;;9.43;;
73264;SDS011;61493;51.008;14.088;2023-09-12T02:10:12;11.70;;;8.52;;
73264;SDS011;61493;51.008;14.088;2023-09-12T02:12:38;10.48;;;7.93;;
73264;SDS011;61493;51.008;14.088;2023-09-12T02:15:03;10.40;;;8.45;;
73264;SDS011;61493;51.008;14.088;2023-09-12T02:17:29;11.88;;;9.18;;
73264;SDS011;61493;51.008;14.088;2023-09-12T02:19:54;14.30;;;10.48;;
73264;SDS011;61493;51.008;14.088;2023-09-12T02:22:19;12.07;;;9.27;;
73264;SDS011;61493;51.008;14.088;2023-09-12T02:24:44;11.75;;;8.85;;
73264;SDS011;61493;51.008;14.088;2023-09-12T02:27:10;11.53;;;8.87;;
73264;SDS011;61493;51.008;14.088;2023-09-12T02:29:35;11.47;;;9.33;;
73264;SDS011;61493;51.008;14.088;2023-09-12T02:32:03;13.68;;;10.05;;
73264;SDS011;61493;51.008;14.088;2023-09-12T02:34:28;11.88;;;8.52;;
73264;SDS011;61493;51.008;14.088;2023-09-12T02:36:53;13.18;;;9.50;;
73264;SDS011;61493;51.008;14.088;2023-09-12T02:39:19;12.23;;;9.00;;
73264;SDS011;61493;51.008;14.088;2023-09-12T02:41:44;11.77;;;8.15;;
73264;SDS011;61493;51.008;14.088;2023-09-12T02:44:09;13.20;;;9.30;;
73264;SDS011;61493;51.008;14.088;2023-09-12T02:46:36;13.33;;;10.03;;
73264;SDS011;61493;51.008;14.088;2023-09-12T02:49:01;14.90;;;9.88;;
73264;SDS011;61493;51.008;14.088;2023-09-12T02:51:27;16.60;;;10.37;;
73264;SDS011;61493;51.008;14.088;2023-09-12T02:53:52;13.38;;;9.73;;
73264;SDS011;61493;51.008;14.088;2023-09-12T02:56:17;14.50;;;10.35;;
73264;SDS011;61493;51.008;14.088;2023-09-12T02:58:45;15.97;;;10.70;;
73264;SDS011;61493;51.008;14.088;2023-09-12T03:01:14;12.52;;;9.20;;
73264;SDS011;61493;51.008;14.088;2023-09-12T03:03:39;15.35;;;10.25;;
73264;SDS011;61493;51.008;14.088;2023-09-12T03:06:04;12.57;;;9.43;;
73264;SDS011;61493;51.008;14.088;2023-09-12T03:08:29;13.90;;;10.32;;
73264;SDS011;61493;51.008;14.088;2023-09-12T03:10:55;13.50;;;9.90;;
73264;SDS011;61493;51.008;14.088;2023-09-12T03:13:20;14.07;;;9.77;;
73264;SDS011;61493;51.008;14.088;2023-09-12T03:15:45;13.93;;;9.50;;
73264;SDS011;61493;51.008;14.088;2023-09-12T03:18:11;13.43;;;10.13;;
73264;SDS011;61493;51.008;14.088;2023-09-12T03:20:39;14.23;;;11.05;;
73264;SDS011;61493;51.008;14.088;2023-09-12T03:23:04;13.65;;;10.00;;
73264;SDS011;61493;51.008;14.088;2023-09-12T03:25:29;15.18;;;10.05;;
73264;SDS011;61493;51.008;14.088;2023-09-12T03:27:55;14.13;;;10.03;;
73264;SDS011;61493;51.008;14.088;2023-09-12T03:30:20;13.97;;;10.13;;
73264;SDS011;61493;51.008;14.088;2023-09-12T03:32:45;17.30;;;10.70;;
73264;SDS011;61493;51.008;14.088;2023-09-12T03:35:10;13.45;;;10.18;;
73264;SDS011;61493;51.008;14.088;2023-09-12T03:37:35;14.00;;;10.13;;
73264;SDS011;61493;51.008;14.088;2023-09-12T03:40:05;12.88;;;10.00;;
73264;SDS011;61493;51.008;14.088;2023-09-12T03:42:31;14.32;;;10.63;;
73264;SDS011;61493;51.008;14.088;2023-09-12T03:44:56;14.67;;;10.33;;
73264;SDS011;61493;51.008;14.088;2023-09-12T03:47:21;15.57;;;9.87;;
73264;SDS011;61493;51.008;14.088;2023-09-12T03:49:46;13.83;;;10.07;;
73264;SDS011;61493;51.008;14.088;2023-09-12T03:52:11;12.03;;;9.53;;
73264;SDS011;61493;51.008;14.088;2023-09-12T03:54:37;14.27;;;10.73;;
73264;SDS011;61493;51.008;14.088;2023-09-12T03:57:02;13.82;;;10.38;;
73264;SDS011;61493;51.008;14.088;2023-09-12T03:59:27;13.90;;;10.63;;
73264;SDS011;61493;51.008;14.088;2023-09-12T04:01:52;15.63;;;10.50;;
73264;SDS011;61493;51.008;14.088;2023-09-12T04:04:18;15.03;;;10.17;;
73264;SDS011;61493;51.008;14.088;2023-09-12T04:06:43;16.03;;;9.93;;
73264;SDS011;61493;51.008;14.088;2023-09-12T04:09:08;13.50;;;9.77;;
73264;SDS011;61493;51.008;14.088;2023-09-12T04:11:33;14.20;;;10.90;;
73264;SDS011;61493;51.008;14.088;2023-09-12T04:13:58;15.03;;;11.00;;
73264;SDS011;61493;51.008;14.088;2023-09-12T04:16:23;19.70;;;10.75;;
73264;SDS011;61493;51.008;14.088;2023-09-12T04:18:49;13.45;;;10.60;;
73264;SDS011;61493;51.008;14.088;2023-09-12T04:21:14;13.07;;;10.45;;
73264;SDS011;61493;51.008;14.088;2023-09-12T04:23:40;14.10;;;10.50;;
73264;SDS011;61493;51.008;14.088;2023-09-12T04:26:05;16.58;;;10.85;;
73264;SDS011;61493;51.008;14.088;2023-09-12T04:28:30;14.13;;;10.57;;
73264;SDS011;61493;51.008;14.088;2023-09-12T04:31:02;12.75;;;9.93;;
73264;SDS011;61493;51.008;14.088;2023-09-12T04:33:28;14.10;;;10.23;;
73264;SDS011;61493;51.008;14.088;2023-09-12T04:35:53;16.17;;;9.93;;
73264;SDS011;61493;51.008;14.088;2023-09-12T04:38:18;14.30;;;9.87;;
73264;SDS011;61493;51.008;14.088;2023-09-12T04:40:52;12.48;;;9.77;;
73264;SDS011;61493;51.008;14.088;2023-09-12T04:43:17;13.88;;;10.52;;
73264;SDS011;61493;51.008;14.088;2023-09-12T04:45:43;12.00;;;10.00;;
73264;SDS011;61493;51.008;14.088;2023-09-12T04:48:08;15.23;;;10.03;;
73264;SDS011;61493;51.008;14.088;2023-09-12T04:50:33;12.83;;;9.90;;
73264;SDS011;61493;51.008;14.088;2023-09-12T04:52:58;15.33;;;9.67;;
73264;SDS011;61493;51.008;14.088;2023-09-12T04:55:23;12.90;;;9.47;;
73264;SDS011;61493;51.008;14.088;2023-09-12T04:57:48;12.57;;;9.55;;
73264;SDS011;61493;51.008;14.088;2023-09-12T05:00:14;18.63;;;9.90;;
73264;SDS011;61493;51.008;14.088;2023-09-12T05:02:39;13.80;;;9.60;;
73264;SDS011;61493;51.008;14.088;2023-09-12T05:05:04;11.83;;;9.57;;
73264;SDS011;61493;51.008;14.088;2023-09-12T05:07:29;14.80;;;9.93;;
73264;SDS011;61493;51.008;14.088;2023-09-12T05:09:55;13.20;;;9.63;;
73264;SDS011;61493;51.008;14.088;2023-09-12T05:12:20;14.43;;;9.88;;
73264;SDS011;61493;51.008;14.088;2023-09-12T05:14:45;17.87;;;10.27;;
73264;SDS011;61493;51.008;14.088;2023-09-12T05:17:10;14.30;;;10.40;;
73264;SDS011;61493;51.008;14.088;2023-09-12T05:19:35;13.87;;;9.50;;
73264;SDS011;61493;51.008;14.088;2023-09-12T05:22:00;13.93;;;10.80;;
73264;SDS011;61493;51.008;14.088;2023-09-12T05:24:26;14.27;;;9.85;;
73264;SDS011;61493;51.008;14.088;2023-09-12T05:26:51;16.33;;;9.43;;
73264;SDS011;61493;51.008;14.088;2023-09-12T05:29:16;14.57;;;10.47;;
73264;SDS011;61493;51.008;14.088;2023-09-12T05:31:41;12.57;;;10.00;;
73264;SDS011;61493;51.008;14.088;2023-09-12T05:34:06;13.80;;;9.83;;
73264;SDS011;61493;51.008;14.088;2023-09-12T05:36:32;12.30;;;9.07;;
73264;SDS011;61493;51.008;14.088;2023-09-12T05:38:57;14.52;;;9.35;;
73264;SDS011;61493;51.008;14.088;2023-09-12T05:41:22;13.80;;;9.77;;
73264;SDS011;61493;51.008;14.088;2023-09-12T05:43:47;13.00;;;10.10;;
73264;SDS011;61493;51.008;14.088;2023-09-12T05:46:13;11.13;;;8.70;;
73264;SDS011;61493;51.008;14.088;2023-09-12T05:48:38;12.53;;;9.43;;
73264;SDS011;61493;51.008;14.088;2023-09-12T05:51:03;11.32;;;9.07;;
73264;SDS011;61493;51.008;14.088;2023-09-12T05:53:28;12.20;;;8.32;;
73264;SDS011;61493;51.008;14.088;2023-09-12T05:55:54;13.40;;;8.50;;
73264;SDS011;61493;51.008;14.088;2023-09-12T05:58:19;13.13;;;8.07;;
73264;SDS011;61493;51.008;14.088;2023-09-12T06:00:44;12.17;;;7.93;;
73264;SDS011;61493;51.008;14.088;2023-09-12T06:03:13;12.85;;;8.40;;
73264;SDS011;61493;51.008;14.088;2023-09-12T06:05:39;11.48;;;7.95;;
73264;SDS011;61493;51.008;14.088;2023-09-12T06:08:04;14.07;;;7.80;;
73264;SDS011;61493;51.008;14.088;2023-09-12T06:10:29;11.38;;;7.75;;
73264;SDS011;61493;51.008;14.088;2023-09-12T06:12:55;12.37;;;7.87;;
73264;SDS011;61493;51.008;14.088;2023-09-12T06:15:20;11.73;;;8.03;;
73264;SDS011;61493;51.008;14.088;2023-09-12T06:17:45;11.27;;;7.97;;
73264;SDS011;61493;51.008;14.088;2023-09-12T06:20:10;9.30;;;7.17;;
73264;SDS011;61493;51.008;14.088;2023-09-12T06:22:35;10.70;;;7.90;;
73264;SDS011;61493;51.008;14.088;2023-09-12T06:25:01;9.75;;;8.27;;
73264;SDS011;61493;51.008;14.088;2023-09-12T06:27:26;9.37;;;7.30;;
73264;SDS011;61493;51.008;14.088;2023-09-12T06:29:51;9.50;;;6.87;;
73264;SDS011;61493;51.008;14.088;2023-09-12T06:32:17;8.90;;;7.27;;
73264;SDS011;61493;51.008;14.088;2023-09-12T06:34:42;11.80;;;8.02;;
73264;SDS011;61493;51.008;14.088;2023-09-12T06:37:08;8.00;;;6.67;;
73264;SDS011;61493;51.008;14.088;2023-09-12T06:39:33;7.65;;;6.78;;
73264;SDS011;61493;51.008;14.088;2023-09-12T06:41:58;8.33;;;7.30;;
73264;SDS011;61493;51.008;14.088;2023-09-12T06:44:23;8.55;;;6.43;;
73264;SDS011;61493;51.008;14.088;2023-09-12T06:46:48;9.20;;;7.07;;
73264;SDS011;61493;51.008;14.088;2023-09-12T06:49:14;8.27;;;6.53;;
73264;SDS011;61493;51.008;14.088;2023-09-12T06:51:39;7.93;;;6.97;;
73264;SDS011;61493;51.008;14.088;2023-09-12T06:54:04;8.37;;;7.20;;
73264;SDS011;61493;51.008;14.088;2023-09-12T06:56:30;15.18;;;7.63;;
73264;SDS011;61493;51.008;14.088;2023-09-12T06:58:55;8.17;;;7.07;;
73264;SDS011;61493;51.008;14.088;2023-09-12T07:01:21;9.95;;;8.05;;
73264;SDS011;61493;51.008;14.088;2023-09-12T07:03:46;8.90;;;7.05;;
73264;SDS011;61493;51.008;14.088;2023-09-12T07:06:11;9.43;;;7.43;;
73264;SDS011;61493;51.008;14.088;2023-09-12T07:08:37;10.30;;;7.40;;
73264;SDS011;61493;51.008;14.088;2023-09-12T07:11:03;7.77;;;6.47;;
73264;SDS011;61493;51.008;14.088;2023-09-12T07:13:30;11.75;;;7.13;;
73264;SDS011;61493;51.008;14.088;2023-09-12T07:15:56;8.90;;;7.05;;
73264;SDS011;61493;51.008;14.088;2023-09-12T07:18:21;8.75;;;7.05;;
73264;SDS011;61493;51.008;14.088;2023-09-12T07:20:46;11.23;;;7.70;;
73264;SDS011;61493;51.008;14.088;2023-09-12T07:23:21;8.43;;;6.93;;
73264;SDS011;61493;51.008;14.088;2023-09-12T07:25:46;8.57;;;6.82;;
73264;SDS011;61493;51.008;14.088;2023-09-12T07:28:11;9.37;;;6.40;;
73264;SDS011;61493;51.008;14.088;2023-09-12T07:30:37;8.30;;;7.43;;
73264;SDS011;61493;51.008;14.088;2023-09-12T07:33:03;8.48;;;6.57;;
73264;SDS011;61493;51.008;14.088;2023-09-12T07:35:29;7.60;;;6.50;;
73264;SDS011;61493;51.008;14.088;2023-09-12T07:37:55;8.93;;;7.25;;
73264;SDS011;61493;51.008;14.088;2023-09-12T07:40:20;8.17;;;6.60;;
73264;SDS011;61493;51.008;14.088;2023-09-12T07:42:46;8.17;;;6.70;;
73264;SDS011;61493;51.008;14.088;2023-09-12T07:45:11;7.82;;;6.60;;
73264;SDS011;61493;51.008;14.088;2023-09-12T07:47:36;8.02;;;6.25;;
73264;SDS011;61493;51.008;14.088;2023-09-12T07:50:02;9.50;;;6.83;;
73264;SDS011;61493;51.008;14.088;2023-09-12T07:52:27;7.53;;;6.38;;
73264;SDS011;61493;51.008;14.088;2023-09-12T07:54:58;11.73;;;7.55;;
73264;SDS011;61493;51.008;14.088;2023-09-12T07:57:23;8.18;;;7.32;;
73264;SDS011;61493;51.008;14.088;2023-09-12T07:59:49;10.83;;;6.90;;
73264;SDS011;61493;51.008;14.088;2023-09-12T08:02:14;7.23;;;6.13;;
73264;SDS011;61493;51.008;14.088;2023-09-12T08:04:39;9.43;;;7.37;;
73264;SDS011;61493;51.008;14.088;2023-09-12T08:07:04;7.87;;;7.07;;
73264;SDS011;61493;51.008;14.088;2023-09-12T08:09:47;9.03;;;6.80;;
73264;SDS011;61493;51.008;14.088;2023-09-12T08:12:13;8.50;;;6.90;;
73264;SDS011;61493;51.008;14.088;2023-09-12T08:14:38;7.90;;;6.87;;
73264;SDS011;61493;51.008;14.088;2023-09-12T08:17:03;8.70;;;7.03;;
73264;SDS011;61493;51.008;14.088;2023-09-12T08:19:28;8.13;;;6.77;;
73264;SDS011;61493;51.008;14.088;2023-09-12T08:21:54;7.33;;;6.63;;
73264;SDS011;61493;51.008;14.088;2023-09-12T08:24:19;7.43;;;6.67;;
73264;SDS011;61493;51.008;14.088;2023-09-12T08:26:45;7.40;;;6.35;;
73264;SDS011;61493;51.008;14.088;2023-09-12T08:29:10;7.00;;;6.27;;
73264;SDS011;61493;51.008;14.088;2023-09-12T08:31:35;8.03;;;6.57;;
73264;SDS011;61493;51.008;14.088;2023-09-12T08:34:00;7.37;;;6.47;;
73264;SDS011;61493;51.008;14.088;2023-09-12T08:36:26;8.10;;;6.35;;
73264;SDS011;61493;51.008;14.088;2023-09-12T08:38:51;7.47;;;6.13;;
73264;SDS011;61493;51.008;14.088;2023-09-12T08:41:16;7.97;;;6.47;;
73264;SDS011;61493;51.008;14.088;2023-09-12T08:43:41;7.60;;;6.33;;
73264;SDS011;61493;51.008;14.088;2023-09-12T08:46:06;8.27;;;6.20;;
73264;SDS011;61493;51.008;14.088;2023-09-12T08:48:32;8.00;;;6.87;;
73264;SDS011;61493;51.008;14.088;2023-09-12T08:50:57;7.80;;;6.40;;
73264;SDS011;61493;51.008;14.088;2023-09-12T08:53:22;7.27;;;5.87;;
73264;SDS011;61493;51.008;14.088;2023-09-12T08:55:47;8.10;;;5.57;;
73264;SDS011;61493;51.008;14.088;2023-09-12T08:58:13;5.97;;;5.37;;
73264;SDS011;61493;51.008;14.088;2023-09-12T09:00:38;6.27;;;5.47;;
73264;SDS011;61493;51.008;14.088;2023-09-12T09:03:03;8.50;;;5.50;;
73264;SDS011;61493;51.008;14.088;2023-09-12T09:05:29;6.13;;;5.43;;
73264;SDS011;61493;51.008;14.088;2023-09-12T09:07:54;7.35;;;5.90;;
73264;SDS011;61493;51.008;14.088;2023-09-12T09:10:21;6.17;;;4.70;;
73264;SDS011;61493;51.008;14.088;2023-09-12T09:12:47;6.50;;;5.25;;
73264;SDS011;61493;51.008;14.088;2023-09-12T09:15:25;7.90;;;4.70;;
73264;SDS011;61493;51.008;14.088;2023-09-12T09:17:52;6.13;;;4.22;;
73264;SDS011;61493;51.008;14.088;2023-09-12T09:20:36;8.48;;;5.25;;
73264;SDS011;61493;51.008;14.088;2023-09-12T09:23:03;6.57;;;4.78;;
73264;SDS011;61493;51.008;14.088;2023-09-12T09:25:32;5.63;;;4.40;;
73264;SDS011;61493;51.008;14.088;2023-09-12T09:27:57;6.50;;;4.25;;
73264;SDS011;61493;51.008;14.088;2023-09-12T09:30:38;5.53;;;4.40;;
73264;SDS011;61493;51.008;14.088;2023-09-12T09:33:04;5.18;;;4.68;;
73264;SDS011;61493;51.008;14.088;2023-09-12T09:35:29;5.70;;;4.60;;
73264;SDS011;61493;51.008;14.088;2023-09-12T09:37:54;9.00;;;4.83;;
73264;SDS011;61493;51.008;14.088;2023-09-12T09:40:21;6.43;;;4.27;;
73264;SDS011;61493;51.008;14.088;2023-09-12T09:42:47;7.20;;;4.80;;
73264;SDS011;61493;51.008;14.088;2023-09-12T09:45:12;6.07;;;4.70;;
73264;SDS011;61493;51.008;14.088;2023-09-12T09:47:37;6.40;;;4.80;;
73264;SDS011;61493;51.008;14.088;2023-09-12T09:50:02;7.37;;;4.90;;
73264;SDS011;61493;51.008;14.088;2023-09-12T09:52:27;6.87;;;4.23;;
73264;SDS011;61493;51.008;14.088;2023-09-12T09:54:53;7.40;;;4.53;;
73264;SDS011;61493;51.008;14.088;2023-09-12T09:57:18;6.87;;;4.80;;
73264;SDS011;61493;51.008;14.088;2023-09-12T09:59:43;7.47;;;5.50;;
73264;SDS011;61493;51.008;14.088;2023-09-12T10:02:14;9.65;;;5.28;;
73264;SDS011;61493;51.008;14.088;2023-09-12T10:04:41;5.47;;;4.03;;
73264;SDS011;61493;51.008;14.088;2023-09-12T10:07:08;7.03;;;4.40;;
73264;SDS011;61493;51.008;14.088;2023-09-12T10:09:34;6.65;;;4.68;;
73264;SDS011;61493;51.008;14.088;2023-09-12T10:11:59;8.77;;;4.63;;
73264;SDS011;61493;51.008;14.088;2023-09-12T10:14:25;6.85;;;4.82;;
73264;SDS011;61493;51.008;14.088;2023-09-12T10:16:51;7.90;;;4.53;;
73264;SDS011;61493;51.008;14.088;2023-09-12T10:19:22;7.57;;;4.22;;
73264;SDS011;61493;51.008;14.088;2023-09-12T10:22:09;9.70;;;4.20;;
73264;SDS011;61493;51.008;14.088;2023-09-12T10:24:35;8.15;;;4.38;;
73264;SDS011;61493;51.008;14.088;2023-09-12T10:27:00;9.17;;;4.10;;
73264;SDS011;61493;51.008;14.088;2023-09-12T10:29:27;8.55;;;4.43;;
73264;SDS011;61493;51.008;14.088;2023-09-12T10:31:52;11.68;;;4.40;;
73264;SDS011;61493;51.008;14.088;2023-09-12T10:34:17;8.20;;;4.97;;
73264;SDS011;61493;51.008;14.088;2023-09-12T10:36:43;6.05;;;4.22;;
73264;SDS011;61493;51.008;14.088;2023-09-12T10:39:10;8.38;;;4.20;;
73264;SDS011;61493;51.008;14.088;2023-09-12T10:41:39;7.50;;;4.00;;
73264;SDS011;61493;51.008;14.088;2023-09-12T10:44:25;5.68;;;3.90;;
73264;SDS011;61493;51.008;14.088;2023-09-12T10:46:49;7.43;;;3.83;;
73264;SDS011;61493;51.008;14.088;2023-09-12T10:49:17;12.27;;;3.67;;
73264;SDS011;61493;51.008;14.088;2023-09-12T10:51:44;7.07;;;3.55;;
73264;SDS011;61493;51.008;14.088;2023-09-12T10:54:14;7.38;;;3.80;;
73264;SDS011;61493;51.008;14.088;2023-09-12T10:56:39;8.45;;;3.97;;
73264;SDS011;61493;51.008;14.088;2023-09-12T11:01:41;9.55;;;5.15;;
73264;SDS011;61493;51.008;14.088;2023-09-12T11:06:45;8.55;;;4.07;;
73264;SDS011;61493;51.008;14.088;2023-09-12T11:11:39;6.65;;;3.50;;
73264;SDS011;61493;51.008;14.088;2023-09-12T11:14:04;9.13;;;4.38;;
73264;SDS011;61493;51.008;14.088;2023-09-12T11:16:30;10.45;;;3.72;;
73264;SDS011;61493;51.008;14.088;2023-09-12T11:19:11;12.57;;;4.38;;
73264;SDS011;61493;51.008;14.088;2023-09-12T11:21:37;5.60;;;3.57;;
73264;SDS011;61493;51.008;14.088;2023-09-12T11:24:02;7.63;;;3.43;;
73264;SDS011;61493;51.008;14.088;2023-09-12T11:26:29;6.90;;;3.80;;
73264;SDS011;61493;51.008;14.088;2023-09-12T11:28:54;10.27;;;4.80;;
73264;SDS011;61493;51.008;14.088;2023-09-12T11:31:26;9.25;;;3.58;;
73264;SDS011;61493;51.008;14.088;2023-09-12T11:33:52;9.93;;;4.07;;
73264;SDS011;61493;51.008;14.088;2023-09-12T11:36:18;7.22;;;4.07;;
73264;SDS011;61493;51.008;14.088;2023-09-12T11:38:43;9.65;;;4.30;;
73264;SDS011;61493;51.008;14.088;2023-09-12T11:41:14;8.48;;;3.88;;
73264;SDS011;61493;51.008;14.088;2023-09-12T11:43:39;7.67;;;3.70;;
73264;SDS011;61493;51.008;14.088;2023-09-12T11:46:04;10.02;;;4.43;;
73264;SDS011;61493;51.008;14.088;2023-09-12T11:48:31;10.95;;;4.63;;
73264;SDS011;61493;51.008;14.088;2023-09-12T11:50:56;6.50;;;4.87;;
73264;SDS011;61493;51.008;14.088;2023-09-12T11:53:23;8.10;;;4.47;;
73264;SDS011;61493;51.008;14.088;2023-09-12T11:55:51;8.07;;;4.65;;
73264;SDS011;61493;51.008;14.088;2023-09-12T11:58:17;6.50;;;4.20;;
73264;SDS011;61493;51.008;14.088;2023-09-12T12:00:49;5.82;;;3.75;;
73264;SDS011;61493;51.008;14.088;2023-09-12T12:03:16;8.50;;;5.20;;
73264;SDS011;61493;51.008;14.088;2023-09-12T12:05:41;10.07;;;4.93;;
73264;SDS011;61493;51.008;14.088;2023-09-12T12:08:07;6.73;;;4.27;;
73264;SDS011;61493;51.008;14.088;2023-09-12T12:10:32;8.63;;;4.28;;
73264;SDS011;61493;51.008;14.088;2023-09-12T12:12:57;6.40;;;4.30;;
73264;SDS011;61493;51.008;14.088;2023-09-12T12:15:23;6.63;;;4.67;;
73264;SDS011;61493;51.008;14.088;2023-09-12T12:17:48;6.60;;;4.30;;
73264;SDS011;61493;51.008;14.088;2023-09-12T12:20:13;8.20;;;4.90;;
73264;SDS011;61493;51.008;14.088;2023-09-12T12:22:40;10.73;;;4.70;;
73264;SDS011;61493;51.008;14.088;2023-09-12T12:25:05;8.70;;;4.68;;
73264;SDS011;61493;51.008;14.088;2023-09-12T12:27:31;8.15;;;4.60;;
73264;SDS011;61493;51.008;14.088;2023-09-12T12:29:56;8.73;;;5.43;;
73264;SDS011;61493;51.008;14.088;2023-09-12T12:32:21;9.67;;;5.20;;
73264;SDS011;61493;51.008;14.088;2023-09-12T12:34:49;8.53;;;4.37;;
73264;SDS011;61493;51.008;14.088;2023-09-12T12:37:15;8.93;;;5.03;;
73264;SDS011;61493;51.008;14.088;2023-09-12T12:39:42;8.85;;;4.60;;
73264;SDS011;61493;51.008;14.088;2023-09-12T12:42:08;10.80;;;5.30;;
73264;SDS011;61493;51.008;14.088;2023-09-12T12:44:34;6.22;;;4.50;;
73264;SDS011;61493;51.008;14.088;2023-09-12T12:47:03;8.20;;;5.07;;
73264;SDS011;61493;51.008;14.088;2023-09-12T12:49:28;10.35;;;5.68;;
73264;SDS011;61493;51.008;14.088;2023-09-12T12:51:53;9.93;;;5.20;;
73264;SDS011;61493;51.008;14.088;2023-09-12T12:54:21;10.68;;;4.95;;
73264;SDS011;61493;51.008;14.088;2023-09-12T12:56:47;9.60;;;5.13;;
73264;SDS011;61493;51.008;14.088;2023-09-12T12:59:12;7.90;;;4.67;;
73264;SDS011;61493;51.008;14.088;2023-09-12T13:01:38;8.20;;;4.80;;
73264;SDS011;61493;51.008;14.088;2023-09-12T13:04:06;9.10;;;5.07;;
73264;SDS011;61493;51.008;14.088;2023-09-12T13:06:32;9.52;;;4.70;;
73264;SDS011;61493;51.008;14.088;2023-09-12T13:09:00;9.65;;;5.50;;
73264;SDS011;61493;51.008;14.088;2023-09-12T13:11:29;7.50;;;4.70;;
73264;SDS011;61493;51.008;14.088;2023-09-12T13:13:54;8.03;;;4.57;;
73264;SDS011;61493;51.008;14.088;2023-09-12T13:16:20;8.93;;;5.47;;
73264;SDS011;61493;51.008;14.088;2023-09-12T13:18:45;11.10;;;5.85;;
73264;SDS011;61493;51.008;14.088;2023-09-12T13:21:10;8.63;;;5.10;;
73264;SDS011;61493;51.008;14.088;2023-09-12T13:23:37;8.50;;;4.87;;
73264;SDS011;61493;51.008;14.088;2023-09-12T13:26:02;8.05;;;5.43;;
73264;SDS011;61493;51.008;14.088;2023-09-12T13:28:28;8.90;;;4.70;;
73264;SDS011;61493;51.008;14.088;2023-09-12T13:30:53;10.65;;;4.93;;
73264;SDS011;61493;51.008;14.088;2023-09-12T13:33:19;9.50;;;4.85;;
73264;SDS011;61493;51.008;14.088;2023-09-12T13:35:44;9.30;;;5.55;;
73264;SDS011;61493;51.008;14.088;2023-09-12T13:38:10;9.52;;;5.25;;
73264;SDS011;61493;51.008;14.088;2023-09-12T13:40:38;7.55;;;4.18;;
73264;SDS011;61493;51.008;14.088;2023-09-12T13:43:04;9.13;;;5.03;;
73264;SDS011;61493;51.008;14.088;2023-09-12T13:45:29;7.15;;;4.57;;
73264;SDS011;61493;51.008;14.088;2023-09-12T13:47:54;11.37;;;5.47;;
73264;SDS011;61493;51.008;14.088;2023-09-12T13:50:19;7.97;;;5.37;;
73264;SDS011;61493;51.008;14.088;2023-09-12T13:52:44;8.10;;;5.00;;
73264;SDS011;61493;51.008;14.088;2023-09-12T13:55:10;7.47;;;4.70;;
73264;SDS011;61493;51.008;14.088;2023-09-12T13:57:38;7.65;;;4.47;;
73264;SDS011;61493;51.008;14.088;2023-09-12T14:00:04;12.23;;;4.97;;
73264;SDS011;61493;51.008;14.088;2023-09-12T14:02:29;10.88;;;5.20;;
73264;SDS011;61493;51.008;14.088;2023-09-12T14:04:54;8.50;;;4.70;;
73264;SDS011;61493;51.008;14.088;2023-09-12T14:07:20;9.35;;;4.97;;
73264;SDS011;61493;51.008;14.088;2023-09-12T14:09:46;8.70;;;4.70;;
73264;SDS011;61493;51.008;14.088;2023-09-12T14:12:14;6.80;;;4.60;;
73264;SDS011;61493;51.008;14.088;2023-09-12T14:14:39;9.70;;;4.57;;
73264;SDS011;61493;51.008;14.088;2023-09-12T14:17:47;10.20;;;5.40;;
73264;SDS011;61493;51.008;14.088;2023-09-12T14:20:03;8.63;;;4.85;;
73264;SDS011;61493;51.008;14.088;2023-09-12T14:22:29;7.70;;;4.97;;
73264;SDS011;61493;51.008;14.088;2023-09-12T14:24:54;12.33;;;4.67;;
73264;SDS011;61493;51.008;14.088;2023-09-12T14:27:19;6.28;;;3.92;;